ATH weather

Eleftherios Venizelos International Airport
Athens, Attica, Greece

Public forecast

Using degrees Celsius for public forecast. Weather courtesy of forecast.io.

METAR (pilot weather report)

Retrieved 2017/06/28 04:20 UTC (31 minutes ago):

LGAV 280420Z VRB01KT CAVOK 26/17 Q1010 NOSIG

TAF (pilot weather forecast)

Forecast is more than 12 hours old.

Retrieved 2017/06/27 00:12 UTC (1 day ago):

TAF TAF LGAV 272300Z 2800/2824 25008KT 9999 FEW025 BECMG 2807/2809 10010KT BECMG 2816/2818 VRB03KT TEMPO 2809/2815 FEW020 SCT070